sensor_id;sensor_type;location;lat;lon;timestamp;P1;durP1;ratioP1;P2;durP2;ratioP2
35306;SDS011;21420;52.196;21.416;2022-07-25T00:00:45;8.03;;;5.60;;
35306;SDS011;21420;52.196;21.416;2022-07-25T00:03:11;6.03;;;5.42;;
35306;SDS011;21420;52.196;21.416;2022-07-25T00:05:37;8.55;;;5.78;;
35306;SDS011;21420;52.196;21.416;2022-07-25T00:08:04;5.45;;;4.80;;
35306;SDS011;21420;52.196;21.416;2022-07-25T00:10:30;9.90;;;6.35;;
35306;SDS011;21420;52.196;21.416;2022-07-25T00:12:56;6.62;;;5.53;;
35306;SDS011;21420;52.196;21.416;2022-07-25T00:15:22;8.10;;;5.78;;
35306;SDS011;21420;52.196;21.416;2022-07-25T00:17:48;9.98;;;6.12;;
35306;SDS011;21420;52.196;21.416;2022-07-25T00:20:15;10.48;;;5.75;;
35306;SDS011;21420;52.196;21.416;2022-07-25T00:22:41;7.03;;;5.47;;
35306;SDS011;21420;52.196;21.416;2022-07-25T00:25:07;6.17;;;5.58;;
35306;SDS011;21420;52.196;21.416;2022-07-25T00:27:34;7.72;;;6.10;;
35306;SDS011;21420;52.196;21.416;2022-07-25T00:30:00;8.68;;;7.65;;
35306;SDS011;21420;52.196;21.416;2022-07-25T00:32:26;8.58;;;7.05;;
35306;SDS011;21420;52.196;21.416;2022-07-25T00:34:52;9.23;;;6.87;;
35306;SDS011;21420;52.196;21.416;2022-07-25T00:37:19;9.30;;;6.75;;
35306;SDS011;21420;52.196;21.416;2022-07-25T00:39:45;7.80;;;6.12;;
35306;SDS011;21420;52.196;21.416;2022-07-25T00:42:11;7.12;;;5.67;;
35306;SDS011;21420;52.196;21.416;2022-07-25T00:44:37;7.12;;;5.92;;
35306;SDS011;21420;52.196;21.416;2022-07-25T00:47:03;7.15;;;5.95;;
35306;SDS011;21420;52.196;21.416;2022-07-25T00:49:30;9.50;;;6.15;;
35306;SDS011;21420;52.196;21.416;2022-07-25T00:51:56;8.20;;;5.78;;
35306;SDS011;21420;52.196;21.416;2022-07-25T00:54:23;6.70;;;6.10;;
35306;SDS011;21420;52.196;21.416;2022-07-25T00:56:50;7.37;;;6.58;;
35306;SDS011;21420;52.196;21.416;2022-07-25T00:59:17;8.90;;;7.42;;
35306;SDS011;21420;52.196;21.416;2022-07-25T01:01:43;10.03;;;7.87;;
35306;SDS011;21420;52.196;21.416;2022-07-25T01:04:12;12.80;;;9.50;;
35306;SDS011;21420;52.196;21.416;2022-07-25T01:06:40;13.05;;;8.68;;
35306;SDS011;21420;52.196;21.416;2022-07-25T01:09:06;14.60;;;10.40;;
35306;SDS011;21420;52.196;21.416;2022-07-25T01:11:32;12.53;;;10.72;;
35306;SDS011;21420;52.196;21.416;2022-07-25T01:13:59;9.63;;;8.53;;
35306;SDS011;21420;52.196;21.416;2022-07-25T01:16:25;15.98;;;8.65;;
35306;SDS011;21420;52.196;21.416;2022-07-25T01:18:51;12.43;;;8.73;;
35306;SDS011;21420;52.196;21.416;2022-07-25T01:21:17;7.78;;;7.00;;
35306;SDS011;21420;52.196;21.416;2022-07-25T01:23:43;10.28;;;6.30;;
35306;SDS011;21420;52.196;21.416;2022-07-25T01:26:09;9.85;;;6.95;;
35306;SDS011;21420;52.196;21.416;2022-07-25T01:28:36;7.42;;;6.25;;
35306;SDS011;21420;52.196;21.416;2022-07-25T01:31:02;8.50;;;7.05;;
35306;SDS011;21420;52.196;21.416;2022-07-25T01:33:28;9.40;;;7.15;;
35306;SDS011;21420;52.196;21.416;2022-07-25T01:35:54;8.28;;;7.40;;
35306;SDS011;21420;52.196;21.416;2022-07-25T01:38:20;8.48;;;7.67;;
35306;SDS011;21420;52.196;21.416;2022-07-25T01:40:46;10.80;;;8.45;;
35306;SDS011;21420;52.196;21.416;2022-07-25T01:43:13;8.45;;;7.40;;
35306;SDS011;21420;52.196;21.416;2022-07-25T01:45:39;8.40;;;7.55;;
35306;SDS011;21420;52.196;21.416;2022-07-25T01:48:06;8.88;;;8.08;;
35306;SDS011;21420;52.196;21.416;2022-07-25T01:50:32;10.10;;;7.60;;
35306;SDS011;21420;52.196;21.416;2022-07-25T01:52:58;9.10;;;8.18;;
35306;SDS011;21420;52.196;21.416;2022-07-25T01:55:25;8.45;;;7.35;;
35306;SDS011;21420;52.196;21.416;2022-07-25T01:57:51;8.55;;;7.65;;
35306;SDS011;21420;52.196;21.416;2022-07-25T02:00:17;13.22;;;10.18;;
35306;SDS011;21420;52.196;21.416;2022-07-25T02:02:44;12.05;;;8.30;;
35306;SDS011;21420;52.196;21.416;2022-07-25T02:05:11;7.22;;;6.53;;
35306;SDS011;21420;52.196;21.416;2022-07-25T02:07:39;7.55;;;6.75;;
35306;SDS011;21420;52.196;21.416;2022-07-25T02:10:06;9.60;;;6.50;;
35306;SDS011;21420;52.196;21.416;2022-07-25T02:12:33;6.47;;;5.45;;
35306;SDS011;21420;52.196;21.416;2022-07-25T02:14:59;6.65;;;5.78;;
35306;SDS011;21420;52.196;21.416;2022-07-25T02:17:25;6.50;;;5.67;;
35306;SDS011;21420;52.196;21.416;2022-07-25T02:19:51;6.12;;;5.33;;
35306;SDS011;21420;52.196;21.416;2022-07-25T02:22:17;7.72;;;6.45;;
35306;SDS011;21420;52.196;21.416;2022-07-25T02:24:43;8.25;;;5.92;;
35306;SDS011;21420;52.196;21.416;2022-07-25T02:27:10;6.50;;;5.90;;
35306;SDS011;21420;52.196;21.416;2022-07-25T02:29:36;10.50;;;7.45;;
35306;SDS011;21420;52.196;21.416;2022-07-25T02:32:02;6.80;;;6.05;;
35306;SDS011;21420;52.196;21.416;2022-07-25T02:34:29;7.75;;;5.78;;
35306;SDS011;21420;52.196;21.416;2022-07-25T02:36:55;6.70;;;6.10;;
35306;SDS011;21420;52.196;21.416;2022-07-25T02:39:22;6.85;;;5.95;;
35306;SDS011;21420;52.196;21.416;2022-07-25T02:41:49;10.25;;;6.58;;
35306;SDS011;21420;52.196;21.416;2022-07-25T02:44:15;6.42;;;5.53;;
35306;SDS011;21420;52.196;21.416;2022-07-25T02:46:41;6.92;;;6.25;;
35306;SDS011;21420;52.196;21.416;2022-07-25T02:49:07;7.65;;;5.62;;
35306;SDS011;21420;52.196;21.416;2022-07-25T02:51:33;6.47;;;5.78;;
35306;SDS011;21420;52.196;21.416;2022-07-25T02:53:59;7.97;;;6.00;;
35306;SDS011;21420;52.196;21.416;2022-07-25T02:56:26;9.63;;;6.62;;
35306;SDS011;21420;52.196;21.416;2022-07-25T02:58:52;6.25;;;5.65;;
35306;SDS011;21420;52.196;21.416;2022-07-25T03:01:18;6.12;;;5.55;;
35306;SDS011;21420;52.196;21.416;2022-07-25T03:03:44;5.53;;;5.03;;
35306;SDS011;21420;52.196;21.416;2022-07-25T03:06:10;6.05;;;5.45;;
35306;SDS011;21420;52.196;21.416;2022-07-25T03:08:36;6.60;;;5.62;;
35306;SDS011;21420;52.196;21.416;2022-07-25T03:11:02;7.05;;;6.35;;
35306;SDS011;21420;52.196;21.416;2022-07-25T03:13:29;9.15;;;6.22;;
35306;SDS011;21420;52.196;21.416;2022-07-25T03:15:57;8.13;;;5.80;;
35306;SDS011;21420;52.196;21.416;2022-07-25T03:18:23;7.78;;;4.58;;
35306;SDS011;21420;52.196;21.416;2022-07-25T03:20:49;6.33;;;5.47;;
35306;SDS011;21420;52.196;21.416;2022-07-25T03:23:16;5.72;;;5.10;;
35306;SDS011;21420;52.196;21.416;2022-07-25T03:25:42;8.28;;;5.55;;
35306;SDS011;21420;52.196;21.416;2022-07-25T03:28:09;7.22;;;5.37;;
35306;SDS011;21420;52.196;21.416;2022-07-25T03:30:35;5.72;;;4.75;;
35306;SDS011;21420;52.196;21.416;2022-07-25T03:33:01;7.87;;;4.97;;
35306;SDS011;21420;52.196;21.416;2022-07-25T03:35:27;9.48;;;5.25;;
35306;SDS011;21420;52.196;21.416;2022-07-25T03:37:53;7.55;;;5.00;;
35306;SDS011;21420;52.196;21.416;2022-07-25T03:40:20;5.75;;;5.10;;
35306;SDS011;21420;52.196;21.416;2022-07-25T03:42:46;6.40;;;4.92;;
35306;SDS011;21420;52.196;21.416;2022-07-25T03:45:12;5.97;;;4.85;;
35306;SDS011;21420;52.196;21.416;2022-07-25T03:47:38;6.72;;;5.17;;
35306;SDS011;21420;52.196;21.416;2022-07-25T03:50:05;6.72;;;5.28;;
35306;SDS011;21420;52.196;21.416;2022-07-25T03:52:31;7.30;;;5.60;;
35306;SDS011;21420;52.196;21.416;2022-07-25T03:54:57;6.83;;;5.22;;
35306;SDS011;21420;52.196;21.416;2022-07-25T03:57:24;9.05;;;5.92;;
35306;SDS011;21420;52.196;21.416;2022-07-25T03:59:50;9.53;;;5.70;;
35306;SDS011;21420;52.196;21.416;2022-07-25T04:02:16;6.60;;;5.83;;
35306;SDS011;21420;52.196;21.416;2022-07-25T04:04:42;8.23;;;5.87;;
35306;SDS011;21420;52.196;21.416;2022-07-25T04:07:08;6.58;;;5.80;;
35306;SDS011;21420;52.196;21.416;2022-07-25T04:09:34;7.42;;;5.70;;
35306;SDS011;21420;52.196;21.416;2022-07-25T04:12:00;9.23;;;6.72;;
35306;SDS011;21420;52.196;21.416;2022-07-25T04:14:26;9.53;;;6.78;;
35306;SDS011;21420;52.196;21.416;2022-07-25T04:16:52;6.47;;;5.85;;
35306;SDS011;21420;52.196;21.416;2022-07-25T04:19:18;11.83;;;7.65;;
35306;SDS011;21420;52.196;21.416;2022-07-25T04:21:45;8.20;;;7.33;;
35306;SDS011;21420;52.196;21.416;2022-07-25T04:24:11;12.33;;;7.40;;
35306;SDS011;21420;52.196;21.416;2022-07-25T04:26:37;10.00;;;8.35;;
35306;SDS011;21420;52.196;21.416;2022-07-25T04:29:04;9.18;;;7.53;;
35306;SDS011;21420;52.196;21.416;2022-07-25T04:31:30;9.83;;;8.05;;
35306;SDS011;21420;52.196;21.416;2022-07-25T04:33:56;12.43;;;8.10;;
35306;SDS011;21420;52.196;21.416;2022-07-25T04:36:22;13.13;;;7.60;;
35306;SDS011;21420;52.196;21.416;2022-07-25T04:38:48;11.45;;;7.08;;
35306;SDS011;21420;52.196;21.416;2022-07-25T04:41:14;11.80;;;9.08;;
35306;SDS011;21420;52.196;21.416;2022-07-25T04:43:40;8.58;;;7.42;;
35306;SDS011;21420;52.196;21.416;2022-07-25T04:46:06;9.68;;;7.92;;
35306;SDS011;21420;52.196;21.416;2022-07-25T04:48:33;9.03;;;8.15;;
35306;SDS011;21420;52.196;21.416;2022-07-25T04:50:59;14.83;;;8.95;;
35306;SDS011;21420;52.196;21.416;2022-07-25T04:53:25;9.00;;;7.80;;
35306;SDS011;21420;52.196;21.416;2022-07-25T04:55:52;8.78;;;7.92;;
35306;SDS011;21420;52.196;21.416;2022-07-25T04:58:18;10.78;;;8.20;;
35306;SDS011;21420;52.196;21.416;2022-07-25T05:00:44;9.83;;;8.00;;
35306;SDS011;21420;52.196;21.416;2022-07-25T05:03:10;8.55;;;7.75;;
35306;SDS011;21420;52.196;21.416;2022-07-25T05:05:37;7.72;;;7.03;;
35306;SDS011;21420;52.196;21.416;2022-07-25T05:08:03;11.85;;;7.53;;
35306;SDS011;21420;52.196;21.416;2022-07-25T05:10:30;8.08;;;7.30;;
35306;SDS011;21420;52.196;21.416;2022-07-25T05:12:56;8.58;;;7.67;;
35306;SDS011;21420;52.196;21.416;2022-07-25T05:15:22;9.10;;;7.60;;
35306;SDS011;21420;52.196;21.416;2022-07-25T05:17:49;7.65;;;6.83;;
35306;SDS011;21420;52.196;21.416;2022-07-25T05:20:15;10.65;;;6.83;;
35306;SDS011;21420;52.196;21.416;2022-07-25T05:22:41;7.22;;;6.50;;
35306;SDS011;21420;52.196;21.416;2022-07-25T05:25:08;6.37;;;5.85;;
35306;SDS011;21420;52.196;21.416;2022-07-25T05:27:35;6.00;;;5.40;;
35306;SDS011;21420;52.196;21.416;2022-07-25T05:30:03;6.60;;;5.22;;
35306;SDS011;21420;52.196;21.416;2022-07-25T05:32:31;5.62;;;5.15;;
35306;SDS011;21420;52.196;21.416;2022-07-25T05:34:57;5.25;;;4.75;;
35306;SDS011;21420;52.196;21.416;2022-07-25T05:37:23;6.60;;;4.87;;
35306;SDS011;21420;52.196;21.416;2022-07-25T05:39:50;4.28;;;3.58;;
35306;SDS011;21420;52.196;21.416;2022-07-25T05:42:16;5.58;;;4.12;;
35306;SDS011;21420;52.196;21.416;2022-07-25T05:44:42;3.85;;;3.45;;
35306;SDS011;21420;52.196;21.416;2022-07-25T05:47:09;4.55;;;3.22;;
35306;SDS011;21420;52.196;21.416;2022-07-25T05:49:36;3.83;;;3.25;;
35306;SDS011;21420;52.196;21.416;2022-07-25T05:52:03;2.65;;;2.45;;
35306;SDS011;21420;52.196;21.416;2022-07-25T05:54:30;3.45;;;2.83;;
35306;SDS011;21420;52.196;21.416;2022-07-25T05:56:58;3.83;;;2.80;;
35306;SDS011;21420;52.196;21.416;2022-07-25T05:59:25;5.40;;;3.17;;
35306;SDS011;21420;52.196;21.416;2022-07-25T06:01:52;3.67;;;3.02;;
35306;SDS011;21420;52.196;21.416;2022-07-25T06:04:18;3.40;;;2.90;;
35306;SDS011;21420;52.196;21.416;2022-07-25T06:06:45;4.85;;;2.87;;
35306;SDS011;21420;52.196;21.416;2022-07-25T06:09:21;5.03;;;2.77;;
35306;SDS011;21420;52.196;21.416;2022-07-25T06:11:46;2.55;;;2.35;;
35306;SDS011;21420;52.196;21.416;2022-07-25T06:14:14;3.80;;;2.92;;
35306;SDS011;21420;52.196;21.416;2022-07-25T06:16:41;4.35;;;3.10;;
35306;SDS011;21420;52.196;21.416;2022-07-25T06:19:08;4.35;;;3.00;;
35306;SDS011;21420;52.196;21.416;2022-07-25T06:21:34;3.42;;;3.12;;
35306;SDS011;21420;52.196;21.416;2022-07-25T06:24:01;3.22;;;2.95;;
35306;SDS011;21420;52.196;21.416;2022-07-25T06:26:31;6.85;;;3.12;;
35306;SDS011;21420;52.196;21.416;2022-07-25T06:28:57;3.40;;;3.10;;
35306;SDS011;21420;52.196;21.416;2022-07-25T06:31:24;3.30;;;3.00;;
35306;SDS011;21420;52.196;21.416;2022-07-25T06:33:50;3.70;;;3.00;;
35306;SDS011;21420;52.196;21.416;2022-07-25T06:36:16;4.90;;;3.20;;
35306;SDS011;21420;52.196;21.416;2022-07-25T06:38:42;4.12;;;3.00;;
35306;SDS011;21420;52.196;21.416;2022-07-25T06:41:12;3.25;;;3.05;;
35306;SDS011;21420;52.196;21.416;2022-07-25T06:43:40;4.35;;;2.83;;
35306;SDS011;21420;52.196;21.416;2022-07-25T06:46:06;4.17;;;3.05;;
35306;SDS011;21420;52.196;21.416;2022-07-25T06:48:33;5.28;;;3.02;;
35306;SDS011;21420;52.196;21.416;2022-07-25T06:50:59;2.80;;;2.60;;
35306;SDS011;21420;52.196;21.416;2022-07-25T06:53:25;5.00;;;3.33;;
35306;SDS011;21420;52.196;21.416;2022-07-25T06:55:51;4.00;;;3.58;;
35306;SDS011;21420;52.196;21.416;2022-07-25T06:58:17;3.90;;;3.50;;
35306;SDS011;21420;52.196;21.416;2022-07-25T07:00:43;5.42;;;3.17;;
35306;SDS011;21420;52.196;21.416;2022-07-25T07:03:10;4.35;;;3.27;;
35306;SDS011;21420;52.196;21.416;2022-07-25T07:05:36;5.60;;;3.30;;
35306;SDS011;21420;52.196;21.416;2022-07-25T07:08:05;3.25;;;3.05;;
35306;SDS011;21420;52.196;21.416;2022-07-25T07:10:32;6.85;;;4.03;;
35306;SDS011;21420;52.196;21.416;2022-07-25T07:13:02;8.43;;;3.33;;
35306;SDS011;21420;52.196;21.416;2022-07-25T07:15:35;3.50;;;3.00;;
35306;SDS011;21420;52.196;21.416;2022-07-25T07:18:01;3.52;;;3.22;;
35306;SDS011;21420;52.196;21.416;2022-07-25T07:20:28;4.62;;;2.55;;
35306;SDS011;21420;52.196;21.416;2022-07-25T07:22:54;3.45;;;2.67;;
35306;SDS011;21420;52.196;21.416;2022-07-25T07:25:22;6.97;;;3.30;;
35306;SDS011;21420;52.196;21.416;2022-07-25T07:27:49;4.10;;;2.92;;
35306;SDS011;21420;52.196;21.416;2022-07-25T07:30:16;3.20;;;2.67;;
35306;SDS011;21420;52.196;21.416;2022-07-25T07:32:43;3.17;;;2.45;;
35306;SDS011;21420;52.196;21.416;2022-07-25T07:35:09;2.98;;;2.67;;
35306;SDS011;21420;52.196;21.416;2022-07-25T07:37:37;2.83;;;2.45;;
35306;SDS011;21420;52.196;21.416;2022-07-25T07:40:03;2.80;;;2.60;;
35306;SDS011;21420;52.196;21.416;2022-07-25T07:42:37;5.37;;;3.10;;
35306;SDS011;21420;52.196;21.416;2022-07-25T07:45:11;2.40;;;2.20;;
35306;SDS011;21420;52.196;21.416;2022-07-25T07:47:49;4.00;;;2.45;;
35306;SDS011;21420;52.196;21.416;2022-07-25T07:50:18;3.67;;;2.35;;
35306;SDS011;21420;52.196;21.416;2022-07-25T07:52:48;2.47;;;2.10;;
35306;SDS011;21420;52.196;21.416;2022-07-25T07:55:16;2.95;;;1.80;;
35306;SDS011;21420;52.196;21.416;2022-07-25T07:58:01;2.15;;;2.05;;
35306;SDS011;21420;52.196;21.416;2022-07-25T08:00:29;2.12;;;1.87;;
35306;SDS011;21420;52.196;21.416;2022-07-25T08:03:04;2.12;;;1.92;;
35306;SDS011;21420;52.196;21.416;2022-07-25T08:05:38;3.55;;;1.57;;
35306;SDS011;21420;52.196;21.416;2022-07-25T08:08:05;1.67;;;1.57;;
35306;SDS011;21420;52.196;21.416;2022-07-25T08:10:36;2.35;;;2.15;;
35306;SDS011;21420;52.196;21.416;2022-07-25T08:13:12;1.70;;;1.60;;
35306;SDS011;21420;52.196;21.416;2022-07-25T08:15:42;2.52;;;2.17;;
35306;SDS011;21420;52.196;21.416;2022-07-25T08:18:10;1.98;;;1.85;;
35306;SDS011;21420;52.196;21.416;2022-07-25T08:20:36;3.62;;;1.32;;
35306;SDS011;21420;52.196;21.416;2022-07-25T08:23:03;3.05;;;1.60;;
35306;SDS011;21420;52.196;21.416;2022-07-25T08:25:31;1.55;;;1.45;;
35306;SDS011;21420;52.196;21.416;2022-07-25T08:28:00;1.77;;;1.52;;
35306;SDS011;21420;52.196;21.416;2022-07-25T08:30:28;1.92;;;1.75;;
35306;SDS011;21420;52.196;21.416;2022-07-25T08:32:56;2.00;;;1.67;;
35306;SDS011;21420;52.196;21.416;2022-07-25T08:35:28;2.95;;;1.80;;
35306;SDS011;21420;52.196;21.416;2022-07-25T08:37:56;2.25;;;1.72;;
35306;SDS011;21420;52.196;21.416;2022-07-25T08:40:24;1.50;;;1.40;;
35306;SDS011;21420;52.196;21.416;2022-07-25T08:42:52;4.33;;;2.15;;
35306;SDS011;21420;52.196;21.416;2022-07-25T08:45:21;1.70;;;1.50;;
35306;SDS011;21420;52.196;21.416;2022-07-25T08:47:48;1.77;;;1.65;;
35306;SDS011;21420;52.196;21.416;2022-07-25T08:50:18;1.55;;;1.45;;
35306;SDS011;21420;52.196;21.416;2022-07-25T08:52:48;1.50;;;1.40;;
35306;SDS011;21420;52.196;21.416;2022-07-25T08:55:22;1.50;;;1.40;;
35306;SDS011;21420;52.196;21.416;2022-07-25T08:57:49;1.50;;;1.40;;
35306;SDS011;21420;52.196;21.416;2022-07-25T09:00:19;3.92;;;1.60;;
35306;SDS011;21420;52.196;21.416;2022-07-25T09:02:53;1.98;;;1.57;;
35306;SDS011;21420;52.196;21.416;2022-07-25T09:05:25;1.30;;;1.30;;
35306;SDS011;21420;52.196;21.416;2022-07-25T09:07:53;1.52;;;1.42;;
35306;SDS011;21420;52.196;21.416;2022-07-25T09:10:24;1.57;;;1.47;;
35306;SDS011;21420;52.196;21.416;2022-07-25T09:12:54;1.30;;;1.20;;
35306;SDS011;21420;52.196;21.416;2022-07-25T09:17:55;2.42;;;1.80;;
35306;SDS011;21420;52.196;21.416;2022-07-25T09:23:33;1.62;;;1.52;;
35306;SDS011;21420;52.196;21.416;2022-07-25T09:26:04;2.75;;;1.30;;
35306;SDS011;21420;52.196;21.416;2022-07-25T09:28:40;1.40;;;1.30;;
35306;SDS011;21420;52.196;21.416;2022-07-25T09:31:09;2.65;;;1.40;;
35306;SDS011;21420;52.196;21.416;2022-07-25T09:33:48;1.55;;;1.45;;
35306;SDS011;21420;52.196;21.416;2022-07-25T09:36:23;1.12;;;1.10;;
35306;SDS011;21420;52.196;21.416;2022-07-25T09:38:53;1.55;;;1.45;;
35306;SDS011;21420;52.196;21.416;2022-07-25T09:41:40;1.92;;;1.42;;
35306;SDS011;21420;52.196;21.416;2022-07-25T09:44:20;1.47;;;1.37;;
35306;SDS011;21420;52.196;21.416;2022-07-25T09:49:10;1.40;;;1.30;;
35306;SDS011;21420;52.196;21.416;2022-07-25T09:51:44;1.57;;;1.32;;
35306;SDS011;21420;52.196;21.416;2022-07-25T09:54:08;1.70;;;1.30;;
35306;SDS011;21420;52.196;21.416;2022-07-25T09:56:35;2.27;;;1.22;;
35306;SDS011;21420;52.196;21.416;2022-07-25T09:59:02;2.67;;;1.22;;
35306;SDS011;21420;52.196;21.416;2022-07-25T10:01:37;1.75;;;1.15;;
35306;SDS011;21420;52.196;21.416;2022-07-25T10:04:14;4.37;;;1.32;;
35306;SDS011;21420;52.196;21.416;2022-07-25T10:07:02;1.40;;;1.30;;
35306;SDS011;21420;52.196;21.416;2022-07-25T10:09:40;2.60;;;1.35;;
35306;SDS011;21420;52.196;21.416;2022-07-25T10:12:09;2.30;;;1.17;;
35306;SDS011;21420;52.196;21.416;2022-07-25T10:14:37;2.00;;;1.40;;
35306;SDS011;21420;52.196;21.416;2022-07-25T10:17:04;1.92;;;1.30;;
35306;SDS011;21420;52.196;21.416;2022-07-25T10:19:42;1.42;;;1.30;;
35306;SDS011;21420;52.196;21.416;2022-07-25T10:22:13;1.27;;;1.27;;
35306;SDS011;21420;52.196;21.416;2022-07-25T10:24:43;3.60;;;1.62;;
35306;SDS011;21420;52.196;21.416;2022-07-25T10:27:19;2.02;;;1.27;;
35306;SDS011;21420;52.196;21.416;2022-07-25T10:29:48;1.45;;;1.15;;
35306;SDS011;21420;52.196;21.416;2022-07-25T10:32:18;2.35;;;1.37;;
35306;SDS011;21420;52.196;21.416;2022-07-25T10:34:53;1.42;;;1.32;;
35306;SDS011;21420;52.196;21.416;2022-07-25T10:37:25;1.67;;;1.47;;
35306;SDS011;21420;52.196;21.416;2022-07-25T10:39:53;2.12;;;1.50;;
35306;SDS011;21420;52.196;21.416;2022-07-25T10:42:21;1.40;;;1.30;;
35306;SDS011;21420;52.196;21.416;2022-07-25T10:44:49;1.60;;;1.10;;
35306;SDS011;21420;52.196;21.416;2022-07-25T10:47:27;2.85;;;1.45;;
35306;SDS011;21420;52.196;21.416;2022-07-25T10:49:58;1.90;;;1.30;;
35306;SDS011;21420;52.196;21.416;2022-07-25T10:52:28;1.50;;;1.40;;
35306;SDS011;21420;52.196;21.416;2022-07-25T10:54:59;1.57;;;1.32;;
35306;SDS011;21420;52.196;21.416;2022-07-25T10:57:25;1.65;;;1.40;;
35306;SDS011;21420;52.196;21.416;2022-07-25T10:59:52;1.52;;;1.30;;
35306;SDS011;21420;52.196;21.416;2022-07-25T11:02:19;1.47;;;1.37;;
35306;SDS011;21420;52.196;21.416;2022-07-25T11:04:58;2.72;;;1.30;;
35306;SDS011;21420;52.196;21.416;2022-07-25T11:07:26;1.30;;;1.20;;
35306;SDS011;21420;52.196;21.416;2022-07-25T11:09:57;3.98;;;1.50;;
35306;SDS011;21420;52.196;21.416;2022-07-25T11:12:25;3.00;;;1.30;;
35306;SDS011;21420;52.196;21.416;2022-07-25T11:15:10;1.20;;;1.10;;
35306;SDS011;21420;52.196;21.416;2022-07-25T11:17:32;1.60;;;1.17;;
35306;SDS011;21420;52.196;21.416;2022-07-25T11:20:09;1.60;;;1.32;;
35306;SDS011;21420;52.196;21.416;2022-07-25T11:22:36;1.50;;;1.40;;
35306;SDS011;21420;52.196;21.416;2022-07-25T11:25:08;3.80;;;1.20;;
35306;SDS011;21420;52.196;21.416;2022-07-25T11:27:38;2.10;;;1.65;;
35306;SDS011;21420;52.196;21.416;2022-07-25T11:35:14;1.37;;;1.27;;
35306;SDS011;21420;52.196;21.416;2022-07-25T11:37:44;3.12;;;1.32;;
35306;SDS011;21420;52.196;21.416;2022-07-25T11:40:13;1.20;;;1.10;;
35306;SDS011;21420;52.196;21.416;2022-07-25T11:42:56;1.70;;;1.60;;
35306;SDS011;21420;52.196;21.416;2022-07-25T11:45:25;1.87;;;1.27;;
35306;SDS011;21420;52.196;21.416;2022-07-25T11:50:37;2.62;;;1.10;;
35306;SDS011;21420;52.196;21.416;2022-07-25T11:53:08;3.08;;;1.05;;
35306;SDS011;21420;52.196;21.416;2022-07-25T11:55:43;1.10;;;1.10;;
35306;SDS011;21420;52.196;21.416;2022-07-25T11:58:10;2.30;;;1.32;;
35306;SDS011;21420;52.196;21.416;2022-07-25T12:00:39;1.32;;;1.22;;
35306;SDS011;21420;52.196;21.416;2022-07-25T12:03:12;2.02;;;1.10;;
35306;SDS011;21420;52.196;21.416;2022-07-25T12:05:41;1.70;;;1.00;;
35306;SDS011;21420;52.196;21.416;2022-07-25T12:08:12;1.25;;;1.10;;
35306;SDS011;21420;52.196;21.416;2022-07-25T12:10:42;1.12;;;1.02;;
35306;SDS011;21420;52.196;21.416;2022-07-25T12:13:23;1.32;;;1.22;;
35306;SDS011;21420;52.196;21.416;2022-07-25T12:15:51;1.52;;;1.00;;
35306;SDS011;21420;52.196;21.416;2022-07-25T12:18:18;2.98;;;1.10;;
35306;SDS011;21420;52.196;21.416;2022-07-25T12:20:44;1.50;;;1.40;;
35306;SDS011;21420;52.196;21.416;2022-07-25T12:23:11;1.07;;;1.07;;
35306;SDS011;21420;52.196;21.416;2022-07-25T12:25:43;1.37;;;1.20;;
35306;SDS011;21420;52.196;21.416;2022-07-25T12:28:08;1.27;;;1.17;;
35306;SDS011;21420;52.196;21.416;2022-07-25T12:30:36;2.65;;;1.10;;
35306;SDS011;21420;52.196;21.416;2022-07-25T12:33:04;0.90;;;0.90;;
35306;SDS011;21420;52.196;21.416;2022-07-25T12:35:31;2.33;;;1.55;;
35306;SDS011;21420;52.196;21.416;2022-07-25T12:37:58;1.62;;;1.10;;
35306;SDS011;21420;52.196;21.416;2022-07-25T12:40:24;1.30;;;1.20;;
35306;SDS011;21420;52.196;21.416;2022-07-25T12:42:51;1.52;;;1.12;;
35306;SDS011;21420;52.196;21.416;2022-07-25T12:45:17;1.40;;;1.30;;
35306;SDS011;21420;52.196;21.416;2022-07-25T12:47:44;3.40;;;1.72;;
35306;SDS011;21420;52.196;21.416;2022-07-25T12:50:12;1.60;;;1.37;;
35306;SDS011;21420;52.196;21.416;2022-07-25T12:52:41;1.42;;;1.32;;
35306;SDS011;21420;52.196;21.416;2022-07-25T12:55:10;2.75;;;1.22;;
35306;SDS011;21420;52.196;21.416;2022-07-25T12:57:40;1.92;;;1.10;;
35306;SDS011;21420;52.196;21.416;2022-07-25T13:00:08;2.47;;;1.40;;
35306;SDS011;21420;52.196;21.416;2022-07-25T13:02:38;1.47;;;1.25;;
35306;SDS011;21420;52.196;21.416;2022-07-25T13:05:05;2.50;;;1.30;;
35306;SDS011;21420;52.196;21.416;2022-07-25T13:07:34;1.22;;;1.10;;
35306;SDS011;21420;52.196;21.416;2022-07-25T13:10:01;1.30;;;1.20;;
35306;SDS011;21420;52.196;21.416;2022-07-25T13:12:29;0.80;;;0.80;;
35306;SDS011;21420;52.196;21.416;2022-07-25T13:14:56;2.35;;;1.05;;
35306;SDS011;21420;52.196;21.416;2022-07-25T13:17:22;2.15;;;1.47;;
35306;SDS011;21420;52.196;21.416;2022-07-25T13:19:51;2.42;;;1.30;;
35306;SDS011;21420;52.196;21.416;2022-07-25T13:22:17;1.52;;;1.37;;
35306;SDS011;21420;52.196;21.416;2022-07-25T13:24:44;2.77;;;1.85;;
35306;SDS011;21420;52.196;21.416;2022-07-25T13:27:10;2.20;;;1.30;;
35306;SDS011;21420;52.196;21.416;2022-07-25T13:29:37;1.20;;;1.10;;
35306;SDS011;21420;52.196;21.416;2022-07-25T13:32:06;2.37;;;1.25;;
35306;SDS011;21420;52.196;21.416;2022-07-25T13:34:33;1.17;;;1.07;;
35306;SDS011;21420;52.196;21.416;2022-07-25T13:36:59;1.20;;;1.10;;
35306;SDS011;21420;52.196;21.416;2022-07-25T13:39:25;2.47;;;1.20;;
35306;SDS011;21420;52.196;21.416;2022-07-25T13:41:52;2.58;;;1.35;;
35306;SDS011;21420;52.196;21.416;2022-07-25T13:44:18;3.80;;;1.67;;
35306;SDS011;21420;52.196;21.416;2022-07-25T13:46:45;3.27;;;1.57;;
35306;SDS011;21420;52.196;21.416;2022-07-25T13:49:13;1.87;;;1.40;;
35306;SDS011;21420;52.196;21.416;2022-07-25T13:51:40;2.30;;;1.37;;
35306;SDS011;21420;52.196;21.416;2022-07-25T13:54:06;3.92;;;1.72;;
35306;SDS011;21420;52.196;21.416;2022-07-25T13:56:32;2.00;;;1.70;;
35306;SDS011;21420;52.196;21.416;2022-07-25T13:59:00;4.03;;;1.32;;
35306;SDS011;21420;52.196;21.416;2022-07-25T14:01:27;1.87;;;1.77;;
35306;SDS011;21420;52.196;21.416;2022-07-25T14:03:54;2.20;;;1.57;;
35306;SDS011;21420;52.196;21.416;2022-07-25T14:06:21;4.00;;;1.47;;
35306;SDS011;21420;52.196;21.416;2022-07-25T14:08:47;2.37;;;1.55;;
35306;SDS011;21420;52.196;21.416;2022-07-25T14:11:14;2.77;;;1.77;;
35306;SDS011;21420;52.196;21.416;2022-07-25T14:13:41;1.80;;;1.65;;
35306;SDS011;21420;52.196;21.416;2022-07-25T14:16:08;2.65;;;1.98;;
35306;SDS011;21420;52.196;21.416;2022-07-25T14:18:35;2.50;;;1.70;;
35306;SDS011;21420;52.196;21.416;2022-07-25T14:21:02;1.77;;;1.67;;
35306;SDS011;21420;52.196;21.416;2022-07-25T14:23:28;2.20;;;1.65;;
35306;SDS011;21420;52.196;21.416;2022-07-25T14:25:54;1.77;;;1.40;;
35306;SDS011;21420;52.196;21.416;2022-07-25T14:28:23;2.40;;;1.70;;
35306;SDS011;21420;52.196;21.416;2022-07-25T14:30:49;3.17;;;1.90;;
35306;SDS011;21420;52.196;21.416;2022-07-25T14:33:16;1.75;;;1.65;;
35306;SDS011;21420;52.196;21.416;2022-07-25T14:35:43;1.77;;;1.67;;
35306;SDS011;21420;52.196;21.416;2022-07-25T14:38:10;3.35;;;1.77;;
35306;SDS011;21420;52.196;21.416;2022-07-25T14:40:36;1.80;;;1.70;;
35306;SDS011;21420;52.196;21.416;2022-07-25T14:43:02;1.77;;;1.67;;
35306;SDS011;21420;52.196;21.416;2022-07-25T14:45:29;3.60;;;2.10;;
35306;SDS011;21420;52.196;21.416;2022-07-25T14:47:55;3.72;;;2.00;;
35306;SDS011;21420;52.196;21.416;2022-07-25T14:50:22;2.42;;;2.10;;
35306;SDS011;21420;52.196;21.416;2022-07-25T14:52:48;1.80;;;1.70;;